Brooklyn Park, Minnesota
Current Conditions -  °F | °C
As of 8:53 PM on Friday 21 Nov 2014 (Local Time) from KMIC Reporting Station
Clear Clear  
Wind Chill: 23°   Ceiling: Unl
Heat Index: 32°   Visibility: 10mi
Dew Point: 23°   Wind: 13mph
Humidity: 69%   Direction: 190°S
Pressure: 29.89"   Gusts: NA
Location:  45.11°N, 93.35°W
Report Text: KMIC 220253Z 19011KT 10SM CLR 00/M05 A2989 RMK AO2 SLP136 T00001050 58018
Loading
Personal Weather Stations






























Interactive Weather Map New forecast layout! Learn more

10-Day Weather Forecast

Advertisements
Track Severe Weather on mobile